Time;durP1;ratioP1;P1;durP2;ratioP2;P2;SDS_P1;SDS_P2;PMS_P1;PMS_P2;Temp;Humidity;BMP_temperature;BMP_pressure;BME280_temperature;BME280_humidity;BME280_pressure;Samples;Min_cycle;Max_cycle;Signal;HPM_P1;HPM_P2
2023/05/01 00:01:26;;;;;;;8.60;2.38;;;13.10;90.50;;;;;;5045299;28;20424;-79
2023/05/01 00:03:54;;;;;;;9.05;2.17;;;13.10;90.30;;;;;;5045290;28;20029;-79
2023/05/01 00:06:20;;;;;;;8.90;1.95;;;13.10;90.20;;;;;;5056997;28;20028;-78
2023/05/01 00:08:46;;;;;;;8.50;1.90;;;13.20;90.10;;;;;;5037281;28;20510;-79
2023/05/01 00:11:11;;;;;;;5.22;1.90;;;13.10;90.10;;;;;;5057209;28;20020;-79
2023/05/01 00:13:37;;;;;;;9.60;2.22;;;13.10;89.80;;;;;;5058275;28;20025;-79
2023/05/01 00:16:11;;;;;;;7.65;2.13;;;13.10;89.90;;;;;;5056228;28;20028;-79
2023/05/01 00:18:39;;;;;;;7.90;2.05;;;13.00;90.00;;;;;;5038113;28;20036;-79
2023/05/01 00:21:05;;;;;;;3.47;1.70;;;13.00;90.00;;;;;;5042004;28;20024;-79
2023/05/01 00:23:30;;;;;;;6.63;2.30;;;13.00;89.70;;;;;;5058120;28;20086;-79
2023/05/01 00:25:58;;;;;;;2.50;1.88;;;13.00;89.90;;;;;;5051562;28;20025;-77
2023/05/01 00:28:26;;;;;;;7.45;2.40;;;13.00;90.00;;;;;;5058006;28;20113;-78
2023/05/01 00:30:52;;;;;;;6.47;2.47;;;12.90;89.90;;;;;;5055433;28;20036;-77
2023/05/01 00:33:17;;;;;;;9.60;2.28;;;12.90;89.60;;;;;;5056448;28;20023;-81
2023/05/01 00:35:44;;;;;;;8.27;2.00;;;12.90;89.60;;;;;;5054436;28;20025;-77
2023/05/01 00:38:10;;;;;;;3.08;2.13;;;12.90;89.80;;;;;;5052751;28;20078;-80
2023/05/01 00:40:45;;;;;;;4.47;1.90;;;12.90;90.00;;;;;;5055301;28;20013;-80
2023/05/01 00:43:13;;;;;;;6.15;2.00;;;12.90;90.00;;;;;;5054784;28;20025;-79
2023/05/01 00:45:43;;;;;;;4.28;2.00;;;12.80;90.00;;;;;;5054738;28;20020;-79
2023/05/01 00:48:08;;;;;;;8.35;2.30;;;12.80;90.00;;;;;;5036926;28;20024;-77
2023/05/01 00:50:35;;;;;;;5.82;2.30;;;12.70;90.00;;;;;;5054202;28;20037;-77
2023/05/01 00:53:03;;;;;;;5.57;2.65;;;12.70;89.80;;;;;;5041117;28;20130;-78
2023/05/01 00:55:30;;;;;;;6.97;2.33;;;12.60;90.00;;;;;;5037070;28;20020;-78
2023/05/01 00:57:56;;;;;;;4.22;2.03;;;12.60;90.10;;;;;;5053439;28;20020;-77
2023/05/01 01:00:23;;;;;;;3.80;2.30;;;12.50;90.10;;;;;;5054022;28;20034;-77
2023/05/01 01:02:49;;;;;;;8.85;2.60;;;12.50;90.10;;;;;;5037034;28;20021;-80
2023/05/01 01:05:15;;;;;;;8.45;2.10;;;12.50;90.10;;;;;;5053637;28;20225;-76
2023/05/01 01:07:59;;;;;;;6.50;2.05;;;12.50;90.20;;;;;;5044927;28;20131;-78
2023/05/01 01:10:43;;;;;;;4.32;2.20;;;12.50;90.20;;;;;;5042784;28;20289;-78
2023/05/01 01:13:32;;;;;;;7.30;2.97;;;12.50;90.20;;;;;;5056986;28;20017;-76
2023/05/01 01:16:25;;;;;;;5.82;2.30;;;12.40;90.30;;;;;;5055824;28;20025;-78
2023/05/01 01:19:19;;;;;;;5.82;2.75;;;12.40;90.30;;;;;;5036299;28;20021;-78
2023/05/01 01:21:48;;;;;;;4.13;2.50;;;12.40;90.30;;;;;;5061096;28;20043;-78
2023/05/01 01:24:54;;;;;;;5.22;2.00;;;12.30;90.30;;;;;;5053966;28;20027;-77
2023/05/01 01:27:41;;;;;;;9.10;2.55;;;12.30;90.50;;;;;;5053350;28;20071;-78
2023/05/01 01:30:33;;;;;;;8.90;2.60;;;12.30;90.60;;;;;;5052914;28;20031;-78
2023/05/01 01:33:08;;;;;;;5.70;2.60;;;12.20;90.60;;;;;;5057280;28;20055;-78
2023/05/01 01:35:37;;;;;;;8.43;2.40;;;12.20;90.80;;;;;;5058390;28;20024;-77
2023/05/01 01:38:22;;;;;;;6.68;2.47;;;12.20;90.70;;;;;;5055768;28;20032;-76
2023/05/01 01:41:00;;;;;;;8.20;3.22;;;12.10;90.90;;;;;;5053986;28;20252;-78
2023/05/01 01:43:36;;;;;;;6.75;2.70;;;12.20;90.90;;;;;;5054648;28;20024;-75
2023/05/01 01:46:08;;;;;;;6.90;2.35;;;12.10;90.90;;;;;;5058956;28;20227;-77
2023/05/01 01:48:48;;;;;;;8.57;2.88;;;12.00;91.10;;;;;;5052839;28;20028;-76
2023/05/01 01:51:17;;;;;;;13.93;2.90;;;12.00;91.10;;;;;;5021487;28;20336;-77
2023/05/01 01:53:49;;;;;;;7.40;2.85;;;11.90;91.40;;;;;;5057729;28;20020;-77
2023/05/01 01:56:27;;;;;;;4.45;2.60;;;11.90;91.70;;;;;;5051556;28;20012;-77
2023/05/01 01:59:00;;;;;;;4.72;2.90;;;11.90;91.50;;;;;;5055088;28;20085;-75
2023/05/01 02:01:29;;;;;;;8.82;3.30;;;11.80;91.60;;;;;;5036818;28;20040;-77
2023/05/01 02:03:58;;;;;;;11.82;3.40;;;11.80;91.60;;;;;;5051829;28;20036;-77
2023/05/01 02:06:28;;;;;;;4.50;3.00;;;11.70;91.80;;;;;;5043845;28;20192;-77
2023/05/01 02:08:57;;;;;;;6.50;2.70;;;11.70;91.90;;;;;;5058868;28;20050;-76
2023/05/01 02:11:24;;;;;;;7.18;2.95;;;11.70;91.80;;;;;;5036003;28;20033;-77
2023/05/01 02:13:54;;;;;;;8.10;3.08;;;11.60;91.80;;;;;;5035177;28;20017;-77
2023/05/01 02:16:24;;;;;;;8.23;2.70;;;11.60;91.90;;;;;;5027225;28;20025;-76
2023/05/01 02:18:50;;;;;;;9.70;2.90;;;11.60;92.00;;;;;;5049745;28;20029;-77
2023/05/01 02:21:17;;;;;;;6.93;2.72;;;11.60;92.00;;;;;;5056235;28;20050;-75
2023/05/01 02:23:45;;;;;;;8.48;3.00;;;11.60;92.00;;;;;;5055220;28;20522;-76
2023/05/01 02:26:15;;;;;;;4.70;2.90;;;11.50;92.00;;;;;;5056060;28;20352;-77
2023/05/01 02:28:44;;;;;;;7.45;2.83;;;11.50;92.20;;;;;;5034289;28;20025;-76
2023/05/01 02:31:13;;;;;;;7.50;2.90;;;11.50;92.50;;;;;;5037276;28;20299;-75
2023/05/01 02:33:39;;;;;;;6.45;3.20;;;11.50;92.30;;;;;;5036947;28;20380;-78
2023/05/01 02:36:05;;;;;;;10.40;3.45;;;11.50;92.50;;;;;;5055109;28;20045;-78
2023/05/01 02:38:31;;;;;;;7.03;3.33;;;11.40;92.30;;;;;;5043142;28;20048;-79
2023/05/01 02:40:58;;;;;;;6.43;3.30;;;11.40;92.30;;;;;;5053265;28;20017;-76
2023/05/01 02:43:26;;;;;;;5.85;3.22;;;11.40;92.40;;;;;;5035293;28;20407;-78
2023/05/01 02:46:01;;;;;;;6.95;3.45;;;11.40;92.60;;;;;;5052472;28;20042;-76
2023/05/01 02:48:29;;;;;;;7.07;3.80;;;11.40;92.60;;;;;;5034962;28;20024;-76
2023/05/01 02:50:56;;;;;;;5.55;2.90;;;11.40;92.40;;;;;;5060527;28;20036;-77
2023/05/01 02:53:22;;;;;;;6.93;3.10;;;11.40;92.60;;;;;;5037563;28;20021;-77
2023/05/01 02:55:48;;;;;;;8.65;3.25;;;11.30;92.60;;;;;;5055463;28;20029;-76
2023/05/01 02:58:18;;;;;;;5.63;2.75;;;11.30;92.70;;;;;;5058911;28;20468;-78
2023/05/01 03:00:44;;;;;;;6.50;3.30;;;11.30;92.90;;;;;;5057159;28;20033;-78
2023/05/01 03:03:10;;;;;;;7.10;3.30;;;11.20;92.90;;;;;;5036842;28;20020;-78
2023/05/01 03:05:37;;;;;;;9.02;3.28;;;11.20;93.00;;;;;;5034845;28;20543;-78
2023/05/01 03:08:03;;;;;;;5.97;3.25;;;11.20;93.20;;;;;;5052281;28;20069;-77
2023/05/01 03:10:28;;;;;;;5.03;3.30;;;11.20;93.30;;;;;;5051301;28;20024;-78
2023/05/01 03:12:54;;;;;;;7.80;3.40;;;11.10;93.50;;;;;;5051631;28;20063;-78
2023/05/01 03:15:20;;;;;;;6.97;3.17;;;11.10;93.50;;;;;;5054618;28;20108;-78
2023/05/01 03:17:45;;;;;;;6.50;3.10;;;11.10;93.60;;;;;;5043862;28;20021;-77
2023/05/01 03:20:11;;;;;;;6.75;3.35;;;11.10;93.70;;;;;;5055332;28;20596;-77
2023/05/01 03:22:37;;;;;;;8.90;3.63;;;11.00;93.80;;;;;;5063347;28;20033;-77
2023/05/01 03:25:07;;;;;;;7.00;3.38;;;11.00;93.90;;;;;;5057093;28;20097;-76
2023/05/01 03:27:34;;;;;;;3.85;3.08;;;11.00;94.10;;;;;;5058329;28;20324;-79
2023/05/01 03:30:03;;;;;;;8.80;2.90;;;11.00;94.10;;;;;;5052406;28;20445;-76
2023/05/01 03:32:29;;;;;;;5.70;3.10;;;11.00;94.40;;;;;;5041407;28;20419;-77
2023/05/01 03:34:54;;;;;;;7.18;3.33;;;10.90;94.30;;;;;;5053039;28;20029;-77
2023/05/01 03:37:27;;;;;;;8.55;3.40;;;10.90;94.40;;;;;;5054289;28;20384;-77
2023/05/01 03:39:53;;;;;;;;;;;10.90;94.60;;;;;;5046320;28;20083;-77
2023/05/01 03:42:18;;;;;;;6.28;3.33;;;10.90;94.70;;;;;;5054942;28;19920;-77
2023/05/01 03:44:44;;;;;;;6.75;3.35;;;10.80;94.80;;;;;;5055615;28;20033;-76
2023/05/01 03:47:12;;;;;;;13.25;3.53;;;10.90;94.80;;;;;;5053188;28;20029;-76
2023/05/01 03:49:40;;;;;;;9.25;3.42;;;10.90;94.90;;;;;;5056867;28;20020;-76
2023/05/01 03:52:10;;;;;;;7.50;3.47;;;10.90;94.80;;;;;;5056895;28;20021;-77
2023/05/01 03:54:37;;;;;;;11.48;4.60;;;10.90;94.70;;;;;;5041170;28;20024;-77
2023/05/01 03:57:02;;;;;;;11.32;3.72;;;10.80;94.90;;;;;;5046439;28;20132;-76
2023/05/01 03:59:28;;;;;;;9.90;3.72;;;10.80;95.10;;;;;;5056990;28;20096;-77
2023/05/01 04:01:54;;;;;;;9.65;3.92;;;10.80;95.20;;;;;;5040632;28;20021;-77
2023/05/01 04:04:19;;;;;;;8.98;3.72;;;10.70;95.20;;;;;;5056587;28;20480;-78
2023/05/01 04:06:46;;;;;;;13.65;4.55;;;10.70;95.60;;;;;;5056267;28;20109;-78
2023/05/01 04:09:12;;;;;;;11.70;3.88;;;10.70;95.60;;;;;;5045426;28;20905;-78
2023/05/01 04:11:40;;;;;;;7.68;3.67;;;10.60;95.90;;;;;;5045436;28;20029;-78
2023/05/01 04:14:05;;;;;;;11.30;3.63;;;10.60;96.10;;;;;;5044183;28;20530;-78
2023/05/01 04:16:31;;;;;;;8.30;3.63;;;10.60;96.10;;;;;;5054131;28;20207;-78
2023/05/01 04:18:57;;;;;;;7.68;4.00;;;10.60;96.30;;;;;;5056573;28;20047;-78
2023/05/01 04:21:25;;;;;;;7.85;3.72;;;10.60;96.40;;;;;;5057968;28;20039;-78
2023/05/01 04:23:50;;;;;;;6.82;3.88;;;10.60;96.50;;;;;;5044804;28;20633;-78
2023/05/01 04:26:16;;;;;;;8.80;3.75;;;10.60;96.60;;;;;;5055862;28;20051;-78
2023/05/01 04:28:42;;;;;;;8.20;4.03;;;10.60;96.70;;;;;;5043300;28;20055;-78
2023/05/01 04:31:10;;;;;;;7.47;3.97;;;10.60;96.50;;;;;;5045882;28;20346;-78
2023/05/01 04:33:36;;;;;;;6.30;3.53;;;10.70;96.60;;;;;;5042262;28;20030;-78
2023/05/01 04:36:01;;;;;;;6.43;3.63;;;10.70;96.50;;;;;;5036968;28;20456;-78
2023/05/01 04:38:29;;;;;;;11.32;4.03;;;10.70;96.40;;;;;;5057115;28;20024;-78
2023/05/01 04:40:55;;;;;;;7.10;4.15;;;10.80;96.70;;;;;;5059553;28;20179;-78
2023/05/01 04:43:20;;;;;;;9.88;3.75;;;10.90;96.30;;;;;;5055124;28;20477;-78
2023/05/01 04:45:46;;;;;;;10.15;3.30;;;11.00;96.20;;;;;;5032539;28;20079;-78
2023/05/01 04:48:12;;;;;;;9.27;3.78;;;11.10;95.90;;;;;;5045085;28;20047;-79
2023/05/01 04:50:37;;;;;;;11.57;4.28;;;11.20;95.60;;;;;;5045664;28;20441;-78
2023/05/01 04:53:03;;;;;;;8.63;4.05;;;11.20;95.80;;;;;;5038764;28;20550;-77
2023/05/01 04:55:29;;;;;;;11.15;4.30;;;11.40;95.70;;;;;;5057354;28;20070;-77
2023/05/01 04:57:56;;;;;;;11.45;4.22;;;11.50;95.40;;;;;;5039108;28;20542;-77
2023/05/01 05:00:22;;;;;;;10.93;4.07;;;11.60;95.40;;;;;;5059812;28;20435;-77
2023/05/01 05:02:48;;;;;;;9.75;4.20;;;11.60;95.30;;;;;;5035184;28;20479;-77
2023/05/01 05:05:14;;;;;;;9.52;4.00;;;11.60;95.50;;;;;;5043801;28;20077;-77
2023/05/01 05:07:39;;;;;;;6.68;3.75;;;11.50;95.40;;;;;;5055188;28;20491;-77
2023/05/01 05:10:05;;;;;;;11.70;4.20;;;11.60;95.50;;;;;;5036846;28;20047;-77
2023/05/01 05:12:31;;;;;;;6.10;3.92;;;11.60;95.70;;;;;;5054605;28;20158;-77
2023/05/01 05:14:58;;;;;;;8.48;4.30;;;11.70;95.30;;;;;;5058301;28;20468;-77
2023/05/01 05:17:26;;;;;;;13.85;4.43;;;11.80;94.90;;;;;;5041748;28;20017;-77
2023/05/01 05:19:52;;;;;;;9.70;4.18;;;12.00;94.50;;;;;;5056619;28;20395;-77
2023/05/01 05:22:18;;;;;;;10.80;4.03;;;12.00;94.60;;;;;;5053395;28;20017;-77
2023/05/01 05:24:45;;;;;;;8.88;4.20;;;12.10;94.80;;;;;;5056891;28;20305;-77
2023/05/01 05:27:11;;;;;;;5.88;3.33;;;12.20;94.40;;;;;;5045616;28;20020;-77
2023/05/01 05:29:54;;;;;;;6.68;3.90;;;12.30;94.90;;;;;;5055767;28;20102;-77
2023/05/01 05:32:20;;;;;;;8.10;3.90;;;12.30;94.60;;;;;;5055189;28;20036;-77
2023/05/01 05:34:46;;;;;;;4.93;4.00;;;12.40;94.60;;;;;;5055869;28;20016;-77
2023/05/01 05:37:12;;;;;;;8.35;4.03;;;12.40;94.80;;;;;;5051836;28;20024;-77
2023/05/01 05:39:40;;;;;;;5.45;3.88;;;12.50;94.70;;;;;;5056694;28;20021;-78
2023/05/01 05:42:06;;;;;;;12.02;4.50;;;12.50;94.80;;;;;;5046206;28;20029;-78
2023/05/01 05:44:34;;;;;;;7.35;4.07;;;12.50;94.90;;;;;;5046317;28;20013;-78
2023/05/01 05:47:00;;;;;;;10.05;3.85;;;12.60;95.10;;;;;;5055410;28;20039;-78
2023/05/01 05:49:26;;;;;;;13.48;4.43;;;12.70;95.40;;;;;;5043900;28;20020;-77
2023/05/01 05:51:51;;;;;;;11.35;4.47;;;12.80;95.30;;;;;;5043599;28;20033;-77
2023/05/01 05:54:17;;;;;;;7.53;4.38;;;12.90;95.30;;;;;;5066691;28;20020;-78
2023/05/01 05:56:49;;;;;;;6.50;4.10;;;13.00;95.10;;;;;;5065593;28;20075;-78
2023/05/01 05:59:15;;;;;;;8.48;4.30;;;13.10;95.10;;;;;;5040568;28;20097;-78
2023/05/01 06:01:41;;;;;;;11.98;4.03;;;13.10;94.90;;;;;;5055749;28;20073;-77
2023/05/01 06:04:07;;;;;;;9.27;4.60;;;13.10;94.90;;;;;;5056365;28;20032;-78
2023/05/01 06:06:36;;;;;;;10.43;4.63;;;13.10;95.20;;;;;;5056701;28;20029;-78
2023/05/01 06:09:02;;;;;;;8.98;4.25;;;13.20;95.30;;;;;;5056179;28;20104;-77
2023/05/01 06:11:28;;;;;;;10.73;4.53;;;13.30;95.30;;;;;;5033322;28;20028;-77
2023/05/01 06:13:53;;;;;;;6.22;4.22;;;13.40;95.40;;;;;;5057212;28;20029;-77
2023/05/01 06:16:19;;;;;;;10.15;4.97;;;13.40;95.30;;;;;;5056295;28;20032;-78
2023/05/01 06:18:45;;;;;;;13.82;5.60;;;13.40;95.30;;;;;;5054039;28;20947;-77
2023/05/01 06:21:11;;;;;;;10.63;4.47;;;13.40;95.70;;;;;;5053125;28;20059;-77
2023/05/01 06:23:37;;;;;;;10.30;4.90;;;13.40;96.20;;;;;;5038212;28;20116;-77
2023/05/01 06:26:03;;;;;;;11.95;4.45;;;13.40;96.20;;;;;;5054918;28;20120;-76
2023/05/01 06:28:30;;;;;;;16.55;4.88;;;13.50;96.40;;;;;;5057570;28;20021;-77
2023/05/01 06:30:56;;;;;;;10.35;4.68;;;13.60;96.60;;;;;;5044651;28;20032;-77
2023/05/01 06:33:22;;;;;;;9.52;4.25;;;13.60;96.40;;;;;;5056227;28;20495;-77
2023/05/01 06:35:47;;;;;;;11.93;4.60;;;13.60;96.20;;;;;;5053669;28;20106;-77
2023/05/01 06:38:13;;;;;;;8.82;4.50;;;13.70;96.20;;;;;;5052331;28;20536;-78
2023/05/01 06:40:39;;;;;;;6.45;4.20;;;13.80;96.30;;;;;;5056491;28;20111;-77
2023/05/01 06:43:04;;;;;;;8.27;4.82;;;13.80;96.20;;;;;;5054196;28;20036;-78
2023/05/01 06:45:30;;;;;;;9.55;4.75;;;13.90;96.20;;;;;;5044751;28;20492;-78
2023/05/01 06:47:56;;;;;;;12.13;4.45;;;13.90;96.10;;;;;;5053777;28;20031;-78
2023/05/01 06:50:22;;;;;;;5.72;4.40;;;13.90;96.20;;;;;;5057904;28;20082;-78
2023/05/01 06:52:47;;;;;;;8.93;4.40;;;14.00;96.10;;;;;;5055315;28;20514;-77
2023/05/01 06:55:13;;;;;;;10.02;4.53;;;14.10;96.50;;;;;;5054957;28;20041;-78
2023/05/01 06:57:40;;;;;;;8.95;4.03;;;14.20;96.40;;;;;;5055121;28;20364;-78
2023/05/01 07:00:06;;;;;;;12.02;4.25;;;14.40;96.30;;;;;;5063892;28;20013;-78
2023/05/01 07:02:32;;;;;;;7.50;4.63;;;14.70;96.40;;;;;;5055733;28;20029;-77
2023/05/01 07:04:58;;;;;;;10.93;5.38;;;14.80;96.00;;;;;;5044871;28;20348;-77
2023/05/01 07:07:24;;;;;;;8.98;4.20;;;15.00;95.90;;;;;;5052870;28;20028;-77
2023/05/01 07:09:54;;;;;;;10.50;4.68;;;15.20;95.40;;;;;;5046346;28;20388;-78
2023/05/01 07:12:22;;;;;;;8.80;4.75;;;15.50;95.60;;;;;;5057642;28;20029;-78
2023/05/01 07:14:48;;;;;;;7.30;4.55;;;15.70;94.60;;;;;;5057217;28;20287;-78
2023/05/01 07:17:15;;;;;;;12.27;4.57;;;15.90;94.60;;;;;;5058157;28;20387;-78
2023/05/01 07:19:43;;;;;;;8.75;4.70;;;16.10;93.80;;;;;;5058413;28;20134;-78
2023/05/01 07:22:08;;;;;;;8.40;3.65;;;16.20;93.30;;;;;;5058366;28;20025;-78
2023/05/01 07:24:36;;;;;;;11.57;4.13;;;16.30;93.20;;;;;;5039592;28;20445;-78
2023/05/01 07:27:02;;;;;;;8.63;4.00;;;16.40;92.10;;;;;;5058673;28;20040;-78
2023/05/01 07:29:27;;;;;;;8.05;4.15;;;16.50;91.90;;;;;;5056460;28;20024;-78
2023/05/01 07:31:53;;;;;;;12.75;4.53;;;16.60;91.50;;;;;;5040377;28;20115;-77
2023/05/01 07:34:19;;;;;;;13.02;3.83;;;16.70;91.60;;;;;;5058184;28;20017;-78
2023/05/01 07:36:44;;;;;;;9.32;4.00;;;16.80;91.10;;;;;;5058781;28;20021;-78
2023/05/01 07:39:13;;;;;;;8.77;4.43;;;16.90;91.40;;;;;;5060761;28;20707;-77
2023/05/01 07:41:39;;;;;;;8.93;4.25;;;17.00;91.60;;;;;;5041408;28;20495;-77
2023/05/01 07:44:04;;;;;;;11.45;3.92;;;17.20;90.90;;;;;;5058676;28;20040;-77
2023/05/01 07:46:30;;;;;;;8.85;4.25;;;17.30;91.10;;;;;;5059133;28;20161;-78
2023/05/01 07:48:56;;;;;;;9.80;4.03;;;17.40;91.10;;;;;;5038241;28;20016;-78
2023/05/01 07:51:22;;;;;;;9.00;3.75;;;17.40;89.90;;;;;;5039111;28;20124;-78
2023/05/01 07:53:49;;;;;;;9.23;3.58;;;17.30;90.00;;;;;;5056162;28;20024;-78
2023/05/01 07:56:22;;;;;;;106.10;43.05;;;17.40;89.50;;;;;;5038828;28;20028;-78
2023/05/01 07:58:47;;;;;;;9.23;3.92;;;17.60;90.10;;;;;;5058012;28;20021;-79
2023/05/01 08:01:13;;;;;;;11.25;4.07;;;17.50;88.80;;;;;;5037582;28;20036;-77
2023/05/01 08:03:48;;;;;;;7.15;3.55;;;17.70;89.20;;;;;;5037679;28;20471;-77
2023/05/01 08:06:14;;;;;;;9.18;3.40;;;17.80;89.10;;;;;;5057638;28;20021;-76
2023/05/01 08:08:39;;;;;;;9.23;3.83;;;18.00;88.30;;;;;;5063056;28;20081;-77
2023/05/01 08:11:05;;;;;;;8.52;3.67;;;18.00;88.20;;;;;;5061152;28;20037;-77
2023/05/01 08:13:31;;;;;;;4.75;3.90;;;18.00;87.50;;;;;;5069829;28;20033;-77
2023/05/01 08:16:03;;;;;;;7.55;4.05;;;18.10;87.00;;;;;;5048834;28;20032;-78
2023/05/01 08:18:32;;;;;;;10.20;4.40;;;18.20;87.10;;;;;;5048992;28;20376;-77
2023/05/01 08:20:58;;;;;;;7.82;4.47;;;18.10;87.30;;;;;;5062695;28;20021;-77
2023/05/01 08:23:42;;;;;;;6.93;4.07;;;18.30;87.00;;;;;;5173656;23;20016;-77
2023/05/01 08:26:10;;;;;;;8.50;4.35;;;18.20;87.10;;;;;;5037623;28;20028;-79
2023/05/01 08:28:36;;;;;;;4.80;3.75;;;18.40;87.30;;;;;;5049425;28;20388;-81
2023/05/01 08:31:02;;;;;;;6.55;3.67;;;18.40;87.70;;;;;;5037128;28;20090;-80
2023/05/01 08:33:28;;;;;;;7.10;4.15;;;18.60;86.90;;;;;;5037947;28;20255;-78
2023/05/01 08:35:54;;;;;;;7.38;4.22;;;18.80;86.90;;;;;;5036223;28;20207;-80
2023/05/01 08:38:20;;;;;;;5.03;3.97;;;18.80;86.90;;;;;;5038919;28;20045;-77
2023/05/01 08:40:52;;;;;;;8.18;4.25;;;19.10;85.80;;;;;;5034224;28;20436;-77
2023/05/01 08:43:18;;;;;;;7.72;4.68;;;19.20;86.50;;;;;;5029724;28;20155;-77
2023/05/01 08:45:46;;;;;;;10.13;4.32;;;19.50;85.80;;;;;;5032059;28;20181;-84
2023/05/01 08:48:12;;;;;;;7.70;4.03;;;19.90;84.50;;;;;;5053414;28;20017;-83
2023/05/01 08:50:39;;;;;;;7.97;4.45;;;20.20;84.50;;;;;;5036138;28;20037;-83
2023/05/01 08:53:08;;;;;;;7.47;4.18;;;20.30;83.30;;;;;;5039658;28;20021;-85
2023/05/01 08:55:35;;;;;;;7.20;4.20;;;20.50;82.60;;;;;;5039503;28;20151;-79
2023/05/01 08:58:04;;;;;;;64.75;23.83;;;20.50;81.70;;;;;;5048632;28;20033;-82
2023/05/01 09:00:33;;;;;;;7.80;4.47;;;20.30;82.40;;;;;;5038445;28;20144;-79
2023/05/01 09:03:01;;;;;;;9.38;4.28;;;20.10;82.30;;;;;;5031974;28;20052;-80
2023/05/01 09:05:32;;;;;;;8.32;4.55;;;20.30;82.40;;;;;;5036660;28;20026;-79
2023/05/01 09:08:00;;;;;;;6.13;4.03;;;20.50;81.60;;;;;;5034737;28;20108;-80
2023/05/01 09:10:27;;;;;;;9.70;3.92;;;20.60;79.80;;;;;;5035242;28;20040;-79
2023/05/01 09:12:59;;;;;;;6.50;3.65;;;20.60;80.50;;;;;;5040163;28;20067;-81
2023/05/01 09:15:26;;;;;;;7.85;4.00;;;20.60;80.60;;;;;;5240282;22;20049;-88
2023/05/01 09:17:53;;;;;;;4.75;3.88;;;20.80;81.40;;;;;;5023380;28;20079;-85
2023/05/01 09:20:20;;;;;;;9.07;3.45;;;21.20;82.10;;;;;;5021889;28;20286;-82
2023/05/01 09:22:46;;;;;;;4.45;3.80;;;21.80;80.10;;;;;;5036937;28;20032;-81
2023/05/01 09:25:14;;;;;;;8.02;4.07;;;22.30;80.40;;;;;;5034707;28;20403;-88
2023/05/01 09:27:43;;;;;;;5.95;3.55;;;23.00;76.10;;;;;;5022939;28;20175;-85
2023/05/01 09:30:09;;;;;;;6.88;3.80;;;23.10;71.50;;;;;;5023452;28;20021;-82
2023/05/01 09:32:35;;;;;;;3.42;2.92;;;23.10;73.50;;;;;;5037326;28;20401;-82
2023/05/01 09:35:14;;;;;;;4.55;2.72;;;23.00;70.70;;;;;;5017368;28;20476;-78
2023/05/01 09:37:40;;;;;;;3.88;3.33;;;23.10;71.40;;;;;;5030267;28;20065;-79
2023/05/01 09:40:15;;;;;;;4.45;3.50;;;23.10;69.70;;;;;;5018093;28;20029;-79
2023/05/01 09:42:48;;;;;;;4.18;3.20;;;23.40;71.90;;;;;;5036040;28;20790;-80
2023/05/01 09:45:14;;;;;;;3.63;3.25;;;23.70;70.70;;;;;;5016687;28;20048;-80
2023/05/01 09:47:49;;;;;;;8.13;3.00;;;23.60;68.30;;;;;;5033523;28;20078;-80
2023/05/01 09:50:29;;;;;;;5.15;3.72;;;23.70;69.70;;;;;;5033312;28;20025;-79
2023/05/01 09:52:55;;;;;;;8.25;2.95;;;23.90;69.40;;;;;;5029521;28;20030;-79
2023/05/01 09:55:22;;;;;;;4.65;3.33;;;24.60;70.30;;;;;;5033632;28;20052;-80
2023/05/01 09:57:48;;;;;;;3.45;2.88;;;25.30;67.10;;;;;;5034645;28;20086;-81
2023/05/01 10:00:15;;;;;;;3.33;3.03;;;25.50;63.30;;;;;;5032537;28;20033;-80
2023/05/01 10:02:52;;;;;;;4.07;2.80;;;25.60;63.60;;;;;;5025193;28;20106;-82
2023/05/01 10:05:18;;;;;;;5.10;3.00;;;25.90;60.50;;;;;;5017047;28;20043;-76
2023/05/01 10:08:02;;;;;;;6.18;3.30;;;26.00;61.50;;;;;;5015581;28;20037;-83
2023/05/01 10:10:28;;;;;;;3.53;3.05;;;26.10;61.10;;;;;;5018414;28;20087;-88
2023/05/01 10:13:12;;;;;;;5.55;3.53;;;26.20;64.60;;;;;;5024338;28;20033;-84
2023/05/01 10:15:40;;;;;;;5.32;3.85;;;26.50;60.50;;;;;;5020935;28;20040;-87
2023/05/01 10:18:48;;;;;;;4.65;3.60;;;26.80;60.20;;;;;;5023571;28;20137;-85
2023/05/01 10:21:15;;;;;;;4.75;3.72;;;26.90;58.70;;;;;;5039126;28;20056;-77
2023/05/01 10:23:45;;;;;;;5.80;4.35;;;27.20;58.30;;;;;;5034921;28;20255;-79
2023/05/01 10:26:17;;;;;;;3.97;3.40;;;27.10;57.90;;;;;;5020304;28;20029;-77
2023/05/01 10:28:47;;;;;;;5.85;3.95;;;26.90;59.80;;;;;;5034742;28;20469;-83
2023/05/01 10:31:16;;;;;;;5.75;4.30;;;26.60;59.00;;;;;;5033959;28;20434;-83
2023/05/01 10:33:43;;;;;;;4.97;4.28;;;26.30;58.90;;;;;;5015970;28;20120;-81
2023/05/01 10:36:19;;;;;;;4.80;4.25;;;25.90;60.10;;;;;;5019746;28;20112;-81
2023/05/01 10:38:47;;;;;;;6.97;4.65;;;26.30;59.40;;;;;;5033994;28;20063;-80
2023/05/01 10:41:14;;;;;;;5.85;4.25;;;26.70;59.00;;;;;;5015624;28;20111;-82
2023/05/01 10:43:40;;;;;;;4.30;3.80;;;27.10;60.20;;;;;;5158251;22;20057;-81
2023/05/01 10:46:09;;;;;;;15.60;9.68;;;27.10;59.90;;;;;;5019067;28;20029;-82
2023/05/01 10:48:41;;;;;;;3.53;3.22;;;27.40;57.40;;;;;;5017504;28;20067;-80
2023/05/01 10:51:16;;;;;;;3.95;3.47;;;27.10;57.90;;;;;;5041053;28;20025;-87
2023/05/01 10:53:44;;;;;;;5.20;3.92;;;26.70;58.20;;;;;;5009543;28;20045;-82
2023/05/01 10:56:30;;;;;;;4.05;3.42;;;26.70;59.60;;;;;;5127396;22;20660;-80
2023/05/01 10:59:06;;;;;;;4.07;3.65;;;25.90;59.40;;;;;;5007779;28;20363;-87
2023/05/01 11:01:39;;;;;;;3.63;3.28;;;25.40;58.70;;;;;;5024235;28;20041;-81
2023/05/01 11:04:29;;;;;;;4.80;3.00;;;25.20;59.00;;;;;;5010010;28;20061;-79
2023/05/01 11:07:00;;;;;;;4.88;3.40;;;25.30;59.80;;;;;;5012178;28;20041;-80
2023/05/01 11:09:41;;;;;;;6.03;2.85;;;25.80;60.40;;;;;;5006507;28;20029;-87
2023/05/01 11:12:12;;;;;;;3.17;2.67;;;25.90;57.80;;;;;;5012676;28;20041;-79
2023/05/01 11:14:55;;;;;;;9.68;3.28;;;26.10;59.20;;;;;;5006208;28;20030;-80
2023/05/01 11:17:41;;;;;;;3.65;3.22;;;25.90;57.70;;;;;;5005488;28;20031;-82
2023/05/01 11:20:09;;;;;;;3.85;3.25;;;25.80;58.50;;;;;;5013012;28;20036;-90
2023/05/01 11:22:36;;;;;;;7.20;3.03;;;25.80;56.30;;;;;;5010566;28;20044;-87
2023/05/01 11:25:03;;;;;;;6.13;2.20;;;25.20;57.30;;;;;;5009434;28;20096;-86
2023/05/01 11:27:32;;;;;;;4.13;2.70;;;25.30;56.70;;;;;;5008177;28;20429;-90
2023/05/01 11:29:58;;;;;;;3.80;2.58;;;25.30;57.30;;;;;;5011292;28;20101;-91
2023/05/01 11:32:28;;;;;;;2.55;2.28;;;25.30;56.80;;;;;;5021072;28;20033;-91
2023/05/01 11:34:55;;;;;;;4.80;2.40;;;25.50;57.00;;;;;;5009202;28;20026;-90
2023/05/01 11:37:39;;;;;;;2.63;2.38;;;25.90;55.70;;;;;;5021276;28;20111;-88
2023/05/01 11:40:21;;;;;;;4.22;2.33;;;26.10;55.50;;;;;;5016669;28;20404;-83
2023/05/01 11:42:48;;;;;;;3.38;2.30;;;26.30;55.10;;;;;;5017412;28;20025;-91
2023/05/01 11:45:14;;;;;;;3.05;2.30;;;26.80;56.60;;;;;;5021164;28;20461;-89
2023/05/01 11:47:40;;;;;;;3.05;2.75;;;27.40;56.60;;;;;;5019586;28;20080;-90
2023/05/01 11:50:07;;;;;;;3.15;2.95;;;27.50;55.10;;;;;;5024897;28;20117;-84
2023/05/01 11:52:48;;;;;;;4.28;3.53;;;27.10;54.10;;;;;;5039829;28;20021;-82
2023/05/01 11:55:16;;;;;;;3.95;3.03;;;27.10;53.90;;;;;;5028079;28;20281;-89
2023/05/01 11:57:50;;;;;;;4.72;3.72;;;27.10;54.10;;;;;;5020128;28;20388;-85
2023/05/01 12:00:25;;;;;;;4.15;3.35;;;27.00;54.30;;;;;;5018256;28;20553;-90
2023/05/01 12:02:59;;;;;;;4.13;3.70;;;26.80;54.80;;;;;;5019030;28;20079;-86
2023/05/01 12:05:26;;;;;;;3.90;3.60;;;26.70;56.40;;;;;;5020309;28;20018;-91
2023/05/01 12:08:17;;;;;;;4.70;4.30;;;26.80;56.90;;;;;;5017727;28;20157;-87
2023/05/01 12:10:45;;;;;;;4.10;3.72;;;26.40;55.70;;;;;;5024061;28;20036;-86
2023/05/01 12:13:13;;;;;;;4.25;3.85;;;26.20;56.30;;;;;;5034171;28;20432;-88
2023/05/01 12:15:51;;;;;;;4.68;4.07;;;25.80;56.50;;;;;;5019344;28;20025;-86
2023/05/01 12:18:17;;;;;;;4.60;3.20;;;25.40;56.80;;;;;;5022302;28;20053;-88
2023/05/01 12:20:46;;;;;;;5.45;4.00;;;24.80;58.80;;;;;;5016185;28;20388;-85
2023/05/01 12:23:14;;;;;;;4.82;4.00;;;24.30;60.90;;;;;;5014719;28;20022;-89
2023/05/01 12:25:41;;;;;;;4.85;3.92;;;23.90;61.30;;;;;;5032307;28;20030;-86
2023/05/01 12:28:18;;;;;;;4.53;4.10;;;23.50;63.00;;;;;;5017763;28;20025;-86
2023/05/01 12:30:46;;;;;;;5.32;4.30;;;23.00;63.40;;;;;;5015081;28;20026;-89
2023/05/01 12:33:12;;;;;;;6.43;3.72;;;22.80;64.20;;;;;;5014022;28;20022;-89
2023/05/01 12:35:39;;;;;;;4.15;3.78;;;22.80;64.20;;;;;;5019772;28;20256;-85
2023/05/01 12:38:15;;;;;;;5.68;3.85;;;22.70;65.60;;;;;;5014170;28;20497;-87
2023/05/01 12:40:58;;;;;;;6.63;4.43;;;22.70;65.10;;;;;;5017261;28;20219;-85
2023/05/01 12:43:30;;;;;;;;;;;22.60;64.90;;;;;;5022618;28;20104;-89
2023/05/01 12:45:56;;;;;;;8.13;4.50;;;22.40;66.30;;;;;;5034384;28;19932;-84
2023/05/01 12:48:23;;;;;;;6.53;4.65;;;22.20;67.20;;;;;;5021571;28;20025;-87
2023/05/01 12:50:53;;;;;;;6.40;4.75;;;22.20;68.10;;;;;;5017937;28;20038;-87
2023/05/01 12:53:26;;;;;;;7.65;4.78;;;22.10;68.70;;;;;;5021851;28;20021;-85
2023/05/01 12:55:54;;;;;;;5.68;4.82;;;22.20;67.80;;;;;;5023342;28;20029;-87